sensor_id;sensor_type;location;lat;lon;timestamp;P1;durP1;ratioP1;P2;durP2;ratioP2
38379;SDS011;38377;47.418;18.882;2023-05-20T00:01:58;7.30;;;6.35;;
38379;SDS011;38377;47.418;18.882;2023-05-20T00:04:24;8.02;;;6.68;;
38379;SDS011;38377;47.418;18.882;2023-05-20T00:06:49;8.75;;;6.78;;
38379;SDS011;38377;47.418;18.882;2023-05-20T00:09:15;8.75;;;6.70;;
38379;SDS011;38377;47.418;18.882;2023-05-20T00:11:41;7.40;;;6.70;;
38379;SDS011;38377;47.418;18.882;2023-05-20T00:14:07;9.88;;;7.47;;
38379;SDS011;38377;47.418;18.882;2023-05-20T00:16:40;11.20;;;7.60;;
38379;SDS011;38377;47.418;18.882;2023-05-20T00:19:08;7.70;;;6.90;;
38379;SDS011;38377;47.418;18.882;2023-05-20T00:21:34;9.90;;;7.68;;
38379;SDS011;38377;47.418;18.882;2023-05-20T00:23:59;8.07;;;7.28;;
38379;SDS011;38377;47.418;18.882;2023-05-20T00:26:25;8.40;;;7.35;;
38379;SDS011;38377;47.418;18.882;2023-05-20T00:28:51;11.40;;;8.00;;
38379;SDS011;38377;47.418;18.882;2023-05-20T00:31:17;9.27;;;7.40;;
38379;SDS011;38377;47.418;18.882;2023-05-20T00:33:44;10.00;;;8.40;;
38379;SDS011;38377;47.418;18.882;2023-05-20T00:36:09;9.77;;;7.60;;
38379;SDS011;38377;47.418;18.882;2023-05-20T00:38:35;9.23;;;8.23;;
38379;SDS011;38377;47.418;18.882;2023-05-20T00:41:01;8.88;;;7.90;;
38379;SDS011;38377;47.418;18.882;2023-05-20T00:43:26;10.02;;;7.47;;
38379;SDS011;38377;47.418;18.882;2023-05-20T00:45:52;10.63;;;8.13;;
38379;SDS011;38377;47.418;18.882;2023-05-20T00:48:18;11.55;;;8.20;;
38379;SDS011;38377;47.418;18.882;2023-05-20T00:50:45;10.23;;;8.27;;
38379;SDS011;38377;47.418;18.882;2023-05-20T00:53:12;9.52;;;8.13;;
38379;SDS011;38377;47.418;18.882;2023-05-20T00:55:41;9.07;;;7.90;;
38379;SDS011;38377;47.418;18.882;2023-05-20T00:58:06;9.15;;;7.80;;
38379;SDS011;38377;47.418;18.882;2023-05-20T01:00:32;11.45;;;8.23;;
38379;SDS011;38377;47.418;18.882;2023-05-20T01:02:58;11.32;;;8.57;;
38379;SDS011;38377;47.418;18.882;2023-05-20T01:05:24;10.50;;;8.20;;
38379;SDS011;38377;47.418;18.882;2023-05-20T01:07:50;10.07;;;9.07;;
38379;SDS011;38377;47.418;18.882;2023-05-20T01:10:16;12.70;;;8.30;;
38379;SDS011;38377;47.418;18.882;2023-05-20T01:12:48;9.55;;;8.50;;
38379;SDS011;38377;47.418;18.882;2023-05-20T01:15:19;9.45;;;8.48;;
38379;SDS011;38377;47.418;18.882;2023-05-20T01:17:48;11.27;;;9.13;;
38379;SDS011;38377;47.418;18.882;2023-05-20T01:20:18;14.30;;;9.30;;
38379;SDS011;38377;47.418;18.882;2023-05-20T01:22:48;12.40;;;9.10;;
38379;SDS011;38377;47.418;18.882;2023-05-20T01:25:17;13.18;;;9.50;;
38379;SDS011;38377;47.418;18.882;2023-05-20T01:27:43;12.27;;;9.27;;
38379;SDS011;38377;47.418;18.882;2023-05-20T01:30:09;16.13;;;9.77;;
38379;SDS011;38377;47.418;18.882;2023-05-20T01:32:40;11.38;;;9.23;;
38379;SDS011;38377;47.418;18.882;2023-05-20T01:35:12;12.63;;;9.57;;
38379;SDS011;38377;47.418;18.882;2023-05-20T01:37:40;12.27;;;9.52;;
38379;SDS011;38377;47.418;18.882;2023-05-20T01:40:15;11.68;;;9.85;;
38379;SDS011;38377;47.418;18.882;2023-05-20T01:42:42;11.20;;;10.00;;
38379;SDS011;38377;47.418;18.882;2023-05-20T01:45:09;14.98;;;10.30;;
38379;SDS011;38377;47.418;18.882;2023-05-20T01:47:35;14.05;;;10.68;;
38379;SDS011;38377;47.418;18.882;2023-05-20T01:50:01;11.05;;;9.55;;
38379;SDS011;38377;47.418;18.882;2023-05-20T01:52:27;11.25;;;10.15;;
38379;SDS011;38377;47.418;18.882;2023-05-20T01:54:53;15.35;;;11.00;;
38379;SDS011;38377;47.418;18.882;2023-05-20T01:57:19;15.18;;;10.85;;
38379;SDS011;38377;47.418;18.882;2023-05-20T01:59:46;12.45;;;10.02;;
38379;SDS011;38377;47.418;18.882;2023-05-20T02:02:12;10.60;;;9.45;;
38379;SDS011;38377;47.418;18.882;2023-05-20T02:04:38;15.73;;;10.75;;
38379;SDS011;38377;47.418;18.882;2023-05-20T02:07:03;11.20;;;9.45;;
38379;SDS011;38377;47.418;18.882;2023-05-20T02:09:29;11.32;;;9.60;;
38379;SDS011;38377;47.418;18.882;2023-05-20T02:11:55;11.40;;;9.65;;
38379;SDS011;38377;47.418;18.882;2023-05-20T02:14:21;14.30;;;10.20;;
38379;SDS011;38377;47.418;18.882;2023-05-20T02:16:46;11.93;;;9.38;;
38379;SDS011;38377;47.418;18.882;2023-05-20T02:19:12;11.13;;;9.57;;
38379;SDS011;38377;47.418;18.882;2023-05-20T02:21:41;10.75;;;9.50;;
38379;SDS011;38377;47.418;18.882;2023-05-20T02:24:08;10.85;;;8.80;;
38379;SDS011;38377;47.418;18.882;2023-05-20T02:26:33;11.40;;;9.48;;
38379;SDS011;38377;47.418;18.882;2023-05-20T02:28:59;11.93;;;8.80;;
38379;SDS011;38377;47.418;18.882;2023-05-20T02:31:25;11.68;;;9.15;;
38379;SDS011;38377;47.418;18.882;2023-05-20T02:33:52;14.18;;;9.02;;
38379;SDS011;38377;47.418;18.882;2023-05-20T02:36:18;10.07;;;8.45;;
38379;SDS011;38377;47.418;18.882;2023-05-20T02:38:43;10.55;;;8.25;;
38379;SDS011;38377;47.418;18.882;2023-05-20T02:41:09;10.70;;;8.10;;
38379;SDS011;38377;47.418;18.882;2023-05-20T02:43:35;8.93;;;7.32;;
38379;SDS011;38377;47.418;18.882;2023-05-20T02:46:01;9.98;;;8.00;;
38379;SDS011;38377;47.418;18.882;2023-05-20T02:48:27;11.07;;;8.02;;
38379;SDS011;38377;47.418;18.882;2023-05-20T02:50:53;8.45;;;7.55;;
38379;SDS011;38377;47.418;18.882;2023-05-20T02:53:19;8.50;;;7.35;;
38379;SDS011;38377;47.418;18.882;2023-05-20T02:55:54;13.32;;;7.93;;
38379;SDS011;38377;47.418;18.882;2023-05-20T02:58:19;8.50;;;7.63;;
38379;SDS011;38377;47.418;18.882;2023-05-20T03:00:50;8.35;;;7.50;;
38379;SDS011;38377;47.418;18.882;2023-05-20T03:03:16;8.10;;;7.30;;
38379;SDS011;38377;47.418;18.882;2023-05-20T03:05:42;8.70;;;7.05;;
38379;SDS011;38377;47.418;18.882;2023-05-20T03:08:10;9.00;;;7.25;;
38379;SDS011;38377;47.418;18.882;2023-05-20T03:10:36;8.82;;;7.85;;
38379;SDS011;38377;47.418;18.882;2023-05-20T03:13:06;8.88;;;7.40;;
38379;SDS011;38377;47.418;18.882;2023-05-20T03:15:35;9.10;;;7.15;;
38379;SDS011;38377;47.418;18.882;2023-05-20T03:18:01;10.35;;;7.80;;
38379;SDS011;38377;47.418;18.882;2023-05-20T03:20:27;9.15;;;7.97;;
38379;SDS011;38377;47.418;18.882;2023-05-20T03:22:54;10.00;;;7.63;;
38379;SDS011;38377;47.418;18.882;2023-05-20T03:25:20;7.90;;;7.07;;
38379;SDS011;38377;47.418;18.882;2023-05-20T03:27:46;7.85;;;7.05;;
38379;SDS011;38377;47.418;18.882;2023-05-20T03:30:12;8.70;;;7.55;;
38379;SDS011;38377;47.418;18.882;2023-05-20T03:32:38;8.88;;;7.15;;
38379;SDS011;38377;47.418;18.882;2023-05-20T03:35:04;8.93;;;7.72;;
38379;SDS011;38377;47.418;18.882;2023-05-20T03:37:31;8.25;;;7.20;;
38379;SDS011;38377;47.418;18.882;2023-05-20T03:39:56;8.07;;;6.85;;
38379;SDS011;38377;47.418;18.882;2023-05-20T03:42:22;10.38;;;7.43;;
38379;SDS011;38377;47.418;18.882;2023-05-20T03:44:48;10.75;;;7.32;;
38379;SDS011;38377;47.418;18.882;2023-05-20T03:47:14;8.57;;;7.07;;
38379;SDS011;38377;47.418;18.882;2023-05-20T03:49:39;8.88;;;6.97;;
38379;SDS011;38377;47.418;18.882;2023-05-20T03:52:05;9.13;;;7.07;;
38379;SDS011;38377;47.418;18.882;2023-05-20T03:54:34;8.40;;;7.07;;
38379;SDS011;38377;47.418;18.882;2023-05-20T03:57:00;9.05;;;6.63;;
38379;SDS011;38377;47.418;18.882;2023-05-20T03:59:27;9.05;;;6.75;;
38379;SDS011;38377;47.418;18.882;2023-05-20T04:01:55;9.73;;;7.72;;
38379;SDS011;38377;47.418;18.882;2023-05-20T04:04:21;11.40;;;7.30;;
38379;SDS011;38377;47.418;18.882;2023-05-20T04:06:47;7.30;;;6.55;;
38379;SDS011;38377;47.418;18.882;2023-05-20T04:09:12;7.85;;;6.68;;
38379;SDS011;38377;47.418;18.882;2023-05-20T04:11:38;9.23;;;7.25;;
38379;SDS011;38377;47.418;18.882;2023-05-20T04:14:04;7.45;;;6.65;;
38379;SDS011;38377;47.418;18.882;2023-05-20T04:16:30;11.13;;;7.63;;
38379;SDS011;38377;47.418;18.882;2023-05-20T04:18:56;7.63;;;6.50;;
38379;SDS011;38377;47.418;18.882;2023-05-20T04:21:23;6.60;;;5.90;;
38379;SDS011;38377;47.418;18.882;2023-05-20T04:23:49;8.05;;;6.90;;
38379;SDS011;38377;47.418;18.882;2023-05-20T04:26:14;8.98;;;6.30;;
38379;SDS011;38377;47.418;18.882;2023-05-20T04:28:40;8.02;;;6.30;;
38379;SDS011;38377;47.418;18.882;2023-05-20T04:31:07;10.18;;;7.10;;
38379;SDS011;38377;47.418;18.882;2023-05-20T04:33:35;6.85;;;5.63;;
38379;SDS011;38377;47.418;18.882;2023-05-20T04:36:02;7.05;;;6.13;;
38379;SDS011;38377;47.418;18.882;2023-05-20T04:38:30;8.38;;;5.90;;
38379;SDS011;38377;47.418;18.882;2023-05-20T04:40:59;8.73;;;6.07;;
38379;SDS011;38377;47.418;18.882;2023-05-20T04:43:26;10.23;;;6.53;;
38379;SDS011;38377;47.418;18.882;2023-05-20T04:45:55;9.13;;;6.57;;
38379;SDS011;38377;47.418;18.882;2023-05-20T04:48:21;8.50;;;6.28;;
38379;SDS011;38377;47.418;18.882;2023-05-20T04:50:47;9.23;;;6.53;;
38379;SDS011;38377;47.418;18.882;2023-05-20T04:53:14;8.32;;;6.07;;
38379;SDS011;38377;47.418;18.882;2023-05-20T04:55:40;6.03;;;5.43;;
38379;SDS011;38377;47.418;18.882;2023-05-20T04:58:07;7.38;;;6.20;;
38379;SDS011;38377;47.418;18.882;2023-05-20T05:00:39;6.45;;;5.45;;
38379;SDS011;38377;47.418;18.882;2023-05-20T05:03:08;7.90;;;5.70;;
38379;SDS011;38377;47.418;18.882;2023-05-20T05:05:36;7.43;;;6.25;;
38379;SDS011;38377;47.418;18.882;2023-05-20T05:08:03;8.05;;;6.10;;
38379;SDS011;38377;47.418;18.882;2023-05-20T05:10:30;9.43;;;6.10;;
38379;SDS011;38377;47.418;18.882;2023-05-20T05:12:56;8.32;;;5.95;;
38379;SDS011;38377;47.418;18.882;2023-05-20T05:15:22;6.18;;;5.57;;
38379;SDS011;38377;47.418;18.882;2023-05-20T05:17:48;9.52;;;6.40;;
38379;SDS011;38377;47.418;18.882;2023-05-20T05:20:14;7.20;;;5.93;;
38379;SDS011;38377;47.418;18.882;2023-05-20T05:22:40;6.10;;;5.40;;
38379;SDS011;38377;47.418;18.882;2023-05-20T05:25:09;8.32;;;5.95;;
38379;SDS011;38377;47.418;18.882;2023-05-20T05:27:35;7.55;;;5.50;;
38379;SDS011;38377;47.418;18.882;2023-05-20T05:30:01;6.70;;;5.68;;
38379;SDS011;38377;47.418;18.882;2023-05-20T05:32:28;6.53;;;5.35;;
38379;SDS011;38377;47.418;18.882;2023-05-20T05:34:54;6.80;;;6.10;;
38379;SDS011;38377;47.418;18.882;2023-05-20T05:37:20;8.95;;;5.75;;
38379;SDS011;38377;47.418;18.882;2023-05-20T05:39:45;7.35;;;5.80;;
38379;SDS011;38377;47.418;18.882;2023-05-20T05:42:11;7.07;;;5.43;;
38379;SDS011;38377;47.418;18.882;2023-05-20T05:44:37;8.93;;;5.60;;
38379;SDS011;38377;47.418;18.882;2023-05-20T05:47:03;7.55;;;5.78;;
38379;SDS011;38377;47.418;18.882;2023-05-20T05:49:29;6.70;;;5.57;;
38379;SDS011;38377;47.418;18.882;2023-05-20T05:51:55;9.80;;;6.32;;
38379;SDS011;38377;47.418;18.882;2023-05-20T05:54:21;12.90;;;6.88;;
38379;SDS011;38377;47.418;18.882;2023-05-20T05:56:46;7.78;;;6.53;;
38379;SDS011;38377;47.418;18.882;2023-05-20T05:59:12;9.65;;;6.60;;
38379;SDS011;38377;47.418;18.882;2023-05-20T06:01:39;9.20;;;6.80;;
38379;SDS011;38377;47.418;18.882;2023-05-20T06:04:05;7.63;;;6.57;;
38379;SDS011;38377;47.418;18.882;2023-05-20T06:06:31;8.43;;;6.90;;
38379;SDS011;38377;47.418;18.882;2023-05-20T06:08:57;7.78;;;6.60;;
38379;SDS011;38377;47.418;18.882;2023-05-20T06:11:23;9.00;;;6.90;;
38379;SDS011;38377;47.418;18.882;2023-05-20T06:13:49;6.20;;;5.60;;
38379;SDS011;38377;47.418;18.882;2023-05-20T06:16:15;6.90;;;6.20;;
38379;SDS011;38377;47.418;18.882;2023-05-20T06:18:41;8.75;;;6.38;;
38379;SDS011;38377;47.418;18.882;2023-05-20T06:21:07;7.05;;;6.35;;
38379;SDS011;38377;47.418;18.882;2023-05-20T06:23:35;9.32;;;6.72;;
38379;SDS011;38377;47.418;18.882;2023-05-20T06:26:01;9.07;;;6.95;;
38379;SDS011;38377;47.418;18.882;2023-05-20T06:28:27;7.32;;;6.32;;
38379;SDS011;38377;47.418;18.882;2023-05-20T06:30:53;9.27;;;6.65;;
38379;SDS011;38377;47.418;18.882;2023-05-20T06:33:20;8.68;;;6.45;;
38379;SDS011;38377;47.418;18.882;2023-05-20T06:35:53;8.45;;;7.03;;
38379;SDS011;38377;47.418;18.882;2023-05-20T06:38:20;8.80;;;6.50;;
38379;SDS011;38377;47.418;18.882;2023-05-20T06:40:46;8.75;;;6.93;;
38379;SDS011;38377;47.418;18.882;2023-05-20T06:43:13;11.38;;;6.50;;
38379;SDS011;38377;47.418;18.882;2023-05-20T06:45:42;6.93;;;6.22;;
38379;SDS011;38377;47.418;18.882;2023-05-20T06:48:08;8.73;;;6.47;;
38379;SDS011;38377;47.418;18.882;2023-05-20T06:50:34;6.97;;;6.13;;
38379;SDS011;38377;47.418;18.882;2023-05-20T06:52:59;7.53;;;6.30;;
38379;SDS011;38377;47.418;18.882;2023-05-20T06:55:25;8.80;;;6.53;;
38379;SDS011;38377;47.418;18.882;2023-05-20T06:57:52;7.30;;;6.60;;
38379;SDS011;38377;47.418;18.882;2023-05-20T07:00:17;9.48;;;6.60;;
38379;SDS011;38377;47.418;18.882;2023-05-20T07:02:43;7.65;;;6.40;;
38379;SDS011;38377;47.418;18.882;2023-05-20T07:05:10;9.73;;;6.90;;
38379;SDS011;38377;47.418;18.882;2023-05-20T07:07:36;7.97;;;6.75;;
38379;SDS011;38377;47.418;18.882;2023-05-20T07:10:02;8.48;;;6.40;;
38379;SDS011;38377;47.418;18.882;2023-05-20T07:12:29;7.60;;;6.68;;
38379;SDS011;38377;47.418;18.882;2023-05-20T07:14:55;7.43;;;6.72;;
38379;SDS011;38377;47.418;18.882;2023-05-20T07:17:27;7.28;;;6.40;;
38379;SDS011;38377;47.418;18.882;2023-05-20T07:19:54;7.03;;;6.32;;
38379;SDS011;38377;47.418;18.882;2023-05-20T07:22:20;10.13;;;6.50;;
38379;SDS011;38377;47.418;18.882;2023-05-20T07:24:46;7.90;;;6.68;;
38379;SDS011;38377;47.418;18.882;2023-05-20T07:27:11;8.00;;;6.88;;
38379;SDS011;38377;47.418;18.882;2023-05-20T07:29:37;8.40;;;6.13;;
38379;SDS011;38377;47.418;18.882;2023-05-20T07:32:03;7.40;;;6.68;;
38379;SDS011;38377;47.418;18.882;2023-05-20T07:34:29;7.97;;;6.95;;
38379;SDS011;38377;47.418;18.882;2023-05-20T07:36:55;9.75;;;6.97;;
38379;SDS011;38377;47.418;18.882;2023-05-20T07:39:22;9.98;;;7.05;;
38379;SDS011;38377;47.418;18.882;2023-05-20T07:41:48;7.18;;;6.30;;
38379;SDS011;38377;47.418;18.882;2023-05-20T07:44:14;7.90;;;6.72;;
38379;SDS011;38377;47.418;18.882;2023-05-20T07:46:42;7.47;;;6.07;;
38379;SDS011;38377;47.418;18.882;2023-05-20T07:49:08;8.18;;;6.53;;
38379;SDS011;38377;47.418;18.882;2023-05-20T07:51:34;8.88;;;6.50;;
38379;SDS011;38377;47.418;18.882;2023-05-20T07:54:00;13.02;;;7.30;;
38379;SDS011;38377;47.418;18.882;2023-05-20T07:56:26;10.68;;;6.35;;
38379;SDS011;38377;47.418;18.882;2023-05-20T07:58:56;8.55;;;6.38;;
38379;SDS011;38377;47.418;18.882;2023-05-20T08:01:26;7.18;;;6.43;;
38379;SDS011;38377;47.418;18.882;2023-05-20T08:03:52;7.78;;;6.57;;
38379;SDS011;38377;47.418;18.882;2023-05-20T08:06:17;9.20;;;6.68;;
38379;SDS011;38377;47.418;18.882;2023-05-20T08:08:48;7.63;;;6.32;;
38379;SDS011;38377;47.418;18.882;2023-05-20T08:11:14;8.18;;;6.53;;
38379;SDS011;38377;47.418;18.882;2023-05-20T08:13:39;14.32;;;6.93;;
38379;SDS011;38377;47.418;18.882;2023-05-20T08:16:05;10.75;;;6.57;;
38379;SDS011;38377;47.418;18.882;2023-05-20T08:18:31;8.45;;;6.80;;
38379;SDS011;38377;47.418;18.882;2023-05-20T08:20:58;8.90;;;6.22;;
38379;SDS011;38377;47.418;18.882;2023-05-20T08:23:24;7.80;;;6.88;;
38379;SDS011;38377;47.418;18.882;2023-05-20T08:25:50;27.00;;;7.90;;
38379;SDS011;38377;47.418;18.882;2023-05-20T08:28:16;7.47;;;6.28;;
38379;SDS011;38377;47.418;18.882;2023-05-20T08:30:42;7.68;;;6.88;;
38379;SDS011;38377;47.418;18.882;2023-05-20T08:33:07;10.68;;;6.85;;
38379;SDS011;38377;47.418;18.882;2023-05-20T08:35:33;8.02;;;6.97;;
38379;SDS011;38377;47.418;18.882;2023-05-20T08:37:59;8.27;;;6.45;;
38379;SDS011;38377;47.418;18.882;2023-05-20T08:40:26;8.77;;;7.75;;
38379;SDS011;38377;47.418;18.882;2023-05-20T08:42:52;7.20;;;6.50;;
38379;SDS011;38377;47.418;18.882;2023-05-20T08:45:18;12.60;;;7.07;;
38379;SDS011;38377;47.418;18.882;2023-05-20T08:47:48;8.95;;;7.03;;
38379;SDS011;38377;47.418;18.882;2023-05-20T08:50:14;8.20;;;7.40;;
38379;SDS011;38377;47.418;18.882;2023-05-20T08:52:44;7.90;;;6.30;;
38379;SDS011;38377;47.418;18.882;2023-05-20T08:55:13;7.70;;;6.82;;
38379;SDS011;38377;47.418;18.882;2023-05-20T08:57:41;8.73;;;7.03;;
38379;SDS011;38377;47.418;18.882;2023-05-20T09:00:11;8.25;;;6.78;;
38379;SDS011;38377;47.418;18.882;2023-05-20T09:02:40;7.78;;;6.70;;
38379;SDS011;38377;47.418;18.882;2023-05-20T09:05:08;9.20;;;6.68;;
38379;SDS011;38377;47.418;18.882;2023-05-20T09:07:35;7.65;;;6.72;;
38379;SDS011;38377;47.418;18.882;2023-05-20T09:10:01;8.82;;;7.07;;
38379;SDS011;38377;47.418;18.882;2023-05-20T09:12:27;10.00;;;6.78;;
38379;SDS011;38377;47.418;18.882;2023-05-20T09:14:52;7.07;;;6.18;;
38379;SDS011;38377;47.418;18.882;2023-05-20T09:17:19;8.13;;;7.07;;
38379;SDS011;38377;47.418;18.882;2023-05-20T09:19:49;7.70;;;6.85;;
38379;SDS011;38377;47.418;18.882;2023-05-20T09:22:25;7.97;;;7.18;;
38379;SDS011;38377;47.418;18.882;2023-05-20T09:24:52;12.32;;;7.68;;
38379;SDS011;38377;47.418;18.882;2023-05-20T09:27:18;10.40;;;6.78;;
38379;SDS011;38377;47.418;18.882;2023-05-20T09:29:48;9.60;;;7.40;;
38379;SDS011;38377;47.418;18.882;2023-05-20T09:32:15;7.22;;;6.50;;
38379;SDS011;38377;47.418;18.882;2023-05-20T09:34:42;7.25;;;6.55;;
38379;SDS011;38377;47.418;18.882;2023-05-20T09:37:09;10.07;;;7.00;;
38379;SDS011;38377;47.418;18.882;2023-05-20T09:40:17;8.73;;;6.63;;
38379;SDS011;38377;47.418;18.882;2023-05-20T09:42:36;7.75;;;6.28;;
38379;SDS011;38377;47.418;18.882;2023-05-20T09:45:14;8.50;;;6.93;;
38379;SDS011;38377;47.418;18.882;2023-05-20T09:47:40;7.68;;;6.95;;
38379;SDS011;38377;47.418;18.882;2023-05-20T09:50:07;8.43;;;7.22;;
38379;SDS011;38377;47.418;18.882;2023-05-20T09:52:36;7.82;;;7.05;;
38379;SDS011;38377;47.418;18.882;2023-05-20T09:55:06;7.93;;;7.17;;
38379;SDS011;38377;47.418;18.882;2023-05-20T10:00:00;8.65;;;7.43;;
38379;SDS011;38377;47.418;18.882;2023-05-20T10:02:30;7.53;;;6.65;;
38379;SDS011;38377;47.418;18.882;2023-05-20T10:04:58;7.75;;;6.82;;
38379;SDS011;38377;47.418;18.882;2023-05-20T10:20:46;7.82;;;6.72;;
38379;SDS011;38377;47.418;18.882;2023-05-20T10:23:45;9.63;;;7.57;;
38379;SDS011;38377;47.418;18.882;2023-05-20T10:26:05;8.93;;;7.63;;
38379;SDS011;38377;47.418;18.882;2023-05-20T10:28:32;10.00;;;7.35;;
38379;SDS011;38377;47.418;18.882;2023-05-20T10:31:13;7.28;;;6.55;;
38379;SDS011;38377;47.418;18.882;2023-05-20T10:33:45;8.43;;;7.25;;
38379;SDS011;38377;47.418;18.882;2023-05-20T10:38:56;7.88;;;7.07;;
38379;SDS011;38377;47.418;18.882;2023-05-20T10:44:03;15.57;;;7.43;;
38379;SDS011;38377;47.418;18.882;2023-05-20T10:46:30;10.38;;;6.40;;
38379;SDS011;38377;47.418;18.882;2023-05-20T10:48:57;7.75;;;6.95;;
38379;SDS011;38377;47.418;18.882;2023-05-20T10:51:23;8.00;;;6.22;;
38379;SDS011;38377;47.418;18.882;2023-05-20T10:53:52;9.57;;;6.93;;
38379;SDS011;38377;47.418;18.882;2023-05-20T10:56:20;8.90;;;6.15;;
38379;SDS011;38377;47.418;18.882;2023-05-20T10:58:50;8.57;;;6.38;;
38379;SDS011;38377;47.418;18.882;2023-05-20T11:01:22;7.63;;;6.85;;
38379;SDS011;38377;47.418;18.882;2023-05-20T11:03:50;6.88;;;6.05;;
38379;SDS011;38377;47.418;18.882;2023-05-20T11:06:16;7.93;;;5.95;;
38379;SDS011;38377;47.418;18.882;2023-05-20T11:08:43;10.40;;;7.63;;
38379;SDS011;38377;47.418;18.882;2023-05-20T11:11:10;10.10;;;6.80;;
38379;SDS011;38377;47.418;18.882;2023-05-20T11:13:37;8.57;;;6.57;;
38379;SDS011;38377;47.418;18.882;2023-05-20T11:16:03;8.50;;;6.47;;
38379;SDS011;38377;47.418;18.882;2023-05-20T11:18:32;7.85;;;6.50;;
38379;SDS011;38377;47.418;18.882;2023-05-20T11:20:58;8.75;;;6.25;;
38379;SDS011;38377;47.418;18.882;2023-05-20T11:23:25;9.63;;;6.07;;
38379;SDS011;38377;47.418;18.882;2023-05-20T11:25:52;7.45;;;6.75;;
38379;SDS011;38377;47.418;18.882;2023-05-20T11:28:19;7.05;;;6.35;;
38379;SDS011;38377;47.418;18.882;2023-05-20T11:30:46;7.50;;;6.57;;
38379;SDS011;38377;47.418;18.882;2023-05-20T11:33:13;9.93;;;6.60;;
38379;SDS011;38377;47.418;18.882;2023-05-20T11:38:16;7.80;;;6.18;;
38379;SDS011;38377;47.418;18.882;2023-05-20T11:40:52;7.07;;;6.32;;
38379;SDS011;38377;47.418;18.882;2023-05-20T11:43:19;7.72;;;6.43;;
38379;SDS011;38377;47.418;18.882;2023-05-20T11:45:46;7.18;;;6.50;;
38379;SDS011;38377;47.418;18.882;2023-05-20T11:48:17;10.07;;;6.78;;
38379;SDS011;38377;47.418;18.882;2023-05-20T11:50:44;7.88;;;7.03;;
38379;SDS011;38377;47.418;18.882;2023-05-20T11:53:14;8.25;;;7.32;;
38379;SDS011;38377;47.418;18.882;2023-05-20T11:55:44;7.85;;;6.80;;
38379;SDS011;38377;47.418;18.882;2023-05-20T11:58:11;7.10;;;6.40;;
38379;SDS011;38377;47.418;18.882;2023-05-20T12:00:40;8.32;;;7.20;;
38379;SDS011;38377;47.418;18.882;2023-05-20T12:03:06;7.65;;;6.95;;
38379;SDS011;38377;47.418;18.882;2023-05-20T12:05:31;8.00;;;6.40;;
38379;SDS011;38377;47.418;18.882;2023-05-20T12:07:57;10.27;;;8.15;;
38379;SDS011;38377;47.418;18.882;2023-05-20T12:10:23;7.47;;;6.57;;
38379;SDS011;38377;47.418;18.882;2023-05-20T12:12:48;11.32;;;7.22;;
38379;SDS011;38377;47.418;18.882;2023-05-20T12:15:14;7.43;;;6.65;;
38379;SDS011;38377;47.418;18.882;2023-05-20T12:17:47;7.32;;;6.55;;
38379;SDS011;38377;47.418;18.882;2023-05-20T12:20:14;7.88;;;6.90;;
38379;SDS011;38377;47.418;18.882;2023-05-20T12:22:44;7.90;;;7.03;;
38379;SDS011;38377;47.418;18.882;2023-05-20T12:25:12;10.52;;;7.05;;
38379;SDS011;38377;47.418;18.882;2023-05-20T12:27:39;14.43;;;7.25;;
38379;SDS011;38377;47.418;18.882;2023-05-20T12:30:12;7.50;;;6.63;;
38379;SDS011;38377;47.418;18.882;2023-05-20T12:32:41;9.98;;;6.97;;
38379;SDS011;38377;47.418;18.882;2023-05-20T12:35:07;8.60;;;7.40;;
38379;SDS011;38377;47.418;18.882;2023-05-20T12:37:35;57.42;;;10.02;;
38379;SDS011;38377;47.418;18.882;2023-05-20T12:40:01;9.32;;;6.80;;
38379;SDS011;38377;47.418;18.882;2023-05-20T12:42:32;9.63;;;7.40;;
38379;SDS011;38377;47.418;18.882;2023-05-20T12:45:01;8.70;;;7.25;;
38379;SDS011;38377;47.418;18.882;2023-05-20T12:47:28;8.63;;;6.78;;
38379;SDS011;38377;47.418;18.882;2023-05-20T12:49:54;9.90;;;7.20;;
38379;SDS011;38377;47.418;18.882;2023-05-20T12:52:26;9.18;;;6.72;;
38379;SDS011;38377;47.418;18.882;2023-05-20T12:55:01;21.40;;;7.97;;
38379;SDS011;38377;47.418;18.882;2023-05-20T12:57:29;7.65;;;6.68;;
38379;SDS011;38377;47.418;18.882;2023-05-20T12:59:55;8.68;;;7.32;;
38379;SDS011;38377;47.418;18.882;2023-05-20T13:02:20;8.20;;;7.40;;
38379;SDS011;38377;47.418;18.882;2023-05-20T13:04:46;8.40;;;7.60;;
38379;SDS011;38377;47.418;18.882;2023-05-20T13:07:12;10.98;;;7.53;;
38379;SDS011;38377;47.418;18.882;2023-05-20T13:09:37;11.32;;;7.68;;
38379;SDS011;38377;47.418;18.882;2023-05-20T13:12:03;8.63;;;7.63;;
38379;SDS011;38377;47.418;18.882;2023-05-20T13:14:29;9.43;;;7.45;;
38379;SDS011;38377;47.418;18.882;2023-05-20T13:16:55;8.90;;;7.43;;
38379;SDS011;38377;47.418;18.882;2023-05-20T13:19:21;12.18;;;9.07;;
38379;SDS011;38377;47.418;18.882;2023-05-20T13:21:50;9.95;;;7.47;;
38379;SDS011;38377;47.418;18.882;2023-05-20T13:24:18;9.85;;;7.97;;
38379;SDS011;38377;47.418;18.882;2023-05-20T13:26:44;8.02;;;7.13;;
38379;SDS011;38377;47.418;18.882;2023-05-20T13:29:09;16.73;;;11.82;;
38379;SDS011;38377;47.418;18.882;2023-05-20T13:31:36;9.45;;;7.85;;
38379;SDS011;38377;47.418;18.882;2023-05-20T13:34:02;8.88;;;7.20;;
38379;SDS011;38377;47.418;18.882;2023-05-20T13:36:28;8.57;;;7.47;;
38379;SDS011;38377;47.418;18.882;2023-05-20T13:38:53;10.63;;;8.60;;
38379;SDS011;38377;47.418;18.882;2023-05-20T13:41:19;8.73;;;7.82;;
38379;SDS011;38377;47.418;18.882;2023-05-20T13:43:45;16.77;;;7.95;;
38379;SDS011;38377;47.418;18.882;2023-05-20T13:46:11;10.15;;;7.07;;
38379;SDS011;38377;47.418;18.882;2023-05-20T13:48:37;10.07;;;7.60;;
38379;SDS011;38377;47.418;18.882;2023-05-20T13:51:02;9.93;;;8.07;;
38379;SDS011;38377;47.418;18.882;2023-05-20T13:53:28;9.68;;;7.50;;
38379;SDS011;38377;47.418;18.882;2023-05-20T13:55:54;8.43;;;7.10;;
38379;SDS011;38377;47.418;18.882;2023-05-20T13:58:19;8.75;;;7.25;;
38379;SDS011;38377;47.418;18.882;2023-05-20T14:00:45;23.45;;;9.10;;
38379;SDS011;38377;47.418;18.882;2023-05-20T14:03:11;9.13;;;8.10;;
38379;SDS011;38377;47.418;18.882;2023-05-20T14:05:36;8.00;;;7.03;;
38379;SDS011;38377;47.418;18.882;2023-05-20T14:08:02;13.70;;;9.95;;
38379;SDS011;38377;47.418;18.882;2023-05-20T14:10:28;9.15;;;8.25;;
38379;SDS011;38377;47.418;18.882;2023-05-20T14:12:55;12.35;;;7.28;;
38379;SDS011;38377;47.418;18.882;2023-05-20T14:15:22;9.18;;;7.85;;
38379;SDS011;38377;47.418;18.882;2023-05-20T14:17:47;8.45;;;7.65;;
38379;SDS011;38377;47.418;18.882;2023-05-20T14:20:14;13.52;;;10.65;;
38379;SDS011;38377;47.418;18.882;2023-05-20T14:22:40;13.52;;;10.15;;
38379;SDS011;38377;47.418;18.882;2023-05-20T14:25:06;9.20;;;8.25;;
38379;SDS011;38377;47.418;18.882;2023-05-20T14:27:33;12.75;;;9.10;;
38379;SDS011;38377;47.418;18.882;2023-05-20T14:29:59;9.98;;;8.23;;
38379;SDS011;38377;47.418;18.882;2023-05-20T14:32:24;10.95;;;7.65;;
38379;SDS011;38377;47.418;18.882;2023-05-20T14:34:50;9.95;;;7.60;;
38379;SDS011;38377;47.418;18.882;2023-05-20T14:37:17;10.10;;;8.07;;
38379;SDS011;38377;47.418;18.882;2023-05-20T14:39:43;9.93;;;7.70;;
38379;SDS011;38377;47.418;18.882;2023-05-20T14:42:09;8.43;;;6.75;;
38379;SDS011;38377;47.418;18.882;2023-05-20T14:44:35;9.73;;;7.70;;
38379;SDS011;38377;47.418;18.882;2023-05-20T14:47:01;9.18;;;7.43;;
38379;SDS011;38377;47.418;18.882;2023-05-20T14:49:27;8.88;;;7.38;;
38379;SDS011;38377;47.418;18.882;2023-05-20T14:51:53;12.63;;;10.30;;
38379;SDS011;38377;47.418;18.882;2023-05-20T14:54:18;9.93;;;7.65;;